createdAt,value
2023-02-13T05:29:20.606Z,34.63
2023-02-13T05:34:23.934Z,33.70
2023-02-13T05:39:25.591Z,33.93
2023-02-13T05:44:27.276Z,38.40
2023-02-13T05:49:28.896Z,33.60
2023-02-13T05:54:30.524Z,31.87
2023-02-13T05:59:32.148Z,31.53
2023-02-13T06:04:33.830Z,30.97
2023-02-13T06:09:35.491Z,31.97
2023-02-13T06:14:37.090Z,32.60
2023-02-13T06:19:38.734Z,32.00
2023-02-13T06:24:40.392Z,32.73
2023-02-13T06:29:42.016Z,33.73
2023-02-13T06:34:43.655Z,32.87
2023-02-13T06:39:45.469Z,35.07
2023-02-13T06:44:47.064Z,33.23
2023-02-13T06:49:48.785Z,33.23
2023-02-13T06:54:50.510Z,31.80
2023-02-13T06:59:52.204Z,33.03
2023-02-13T07:04:53.887Z,31.57
2023-02-13T07:09:55.562Z,34.60
2023-02-13T07:14:57.262Z,33.23
2023-02-13T07:20:01.701Z,31.73
2023-02-13T07:25:04.040Z,32.17
2023-02-13T07:30:06.886Z,31.17
2023-02-13T07:35:08.718Z,31.17
2023-02-13T07:40:10.891Z,30.67
2023-02-13T07:45:12.509Z,30.87
2023-02-13T07:50:14.332Z,31.00
2023-02-13T07:55:16.231Z,32.40
2023-02-13T08:00:18.650Z,32.27
2023-02-13T08:05:20.308Z,32.93
2023-02-13T08:10:40.761Z,31.80
2023-02-13T08:15:44.707Z,30.50
2023-02-13T08:20:46.348Z,30.10
2023-02-13T08:25:49.947Z,29.83
2023-02-13T08:30:51.852Z,31.07
2023-02-13T08:35:53.576Z,30.67
2023-02-13T08:40:57.968Z,32.33
2023-02-13T08:46:01.095Z,33.83
2023-02-13T08:51:08.776Z,33.17
2023-02-13T08:56:11.711Z,31.70
2023-02-13T09:01:13.450Z,32.57
2023-02-13T09:06:15.217Z,32.47
2023-02-13T09:11:16.917Z,31.33
2023-02-13T09:16:18.637Z,32.33
2023-02-13T09:21:23.789Z,31.73
2023-02-13T09:26:25.564Z,32.03
2023-02-13T09:31:29.448Z,33.47
2023-02-13T09:36:31.538Z,30.90
2023-02-13T09:41:37.668Z,31.90
2023-02-13T09:46:40.826Z,32.50
2023-02-13T09:51:45.538Z,33.47
2023-02-13T09:57:07.348Z,33.23
2023-02-13T10:02:33.473Z,34.23
2023-02-13T10:07:53.784Z,33.97
2023-02-13T10:13:31.278Z,31.57
2023-02-13T10:19:19.353Z,35.87
2023-02-13T10:24:33.278Z,32.87
2023-02-13T10:30:05.612Z,34.07
2023-02-13T10:35:27.830Z,33.47
2023-02-13T10:40:38.864Z,35.83
2023-02-13T10:45:55.708Z,35.50
2023-02-13T10:51:00.252Z,37.00
2023-02-13T10:56:04.749Z,35.40
2023-02-13T11:01:46.373Z,37.30
2023-02-13T11:07:06.071Z,38.53
2023-02-13T11:12:26.646Z,38.73
2023-02-13T11:17:32.358Z,39.03
2023-02-13T11:22:38.121Z,41.40
2023-02-13T11:27:40.671Z,42.80
2023-02-13T11:32:42.393Z,41.97
2023-02-13T11:37:44.063Z,46.47
2023-02-13T11:42:51.223Z,49.40
2023-02-13T11:47:55.531Z,49.53
2023-02-13T11:53:20.827Z,49.60
2023-02-13T11:58:28.734Z,49.60
2023-02-13T12:03:32.349Z,49.37
2023-02-13T12:08:37.369Z,51.40
2023-02-13T12:13:39.668Z,52.13
2023-02-13T12:18:46.710Z,51.73
2023-02-13T12:24:03.434Z,50.30
2023-02-13T12:29:05.431Z,49.47
2023-02-13T12:34:35.176Z,48.53
2023-02-13T12:39:57.164Z,47.23
2023-02-13T12:45:03.344Z,47.80
2023-02-13T12:50:29.313Z,46.40
2023-02-13T12:55:48.669Z,47.63
2023-02-13T13:01:19.686Z,46.80
2023-02-13T13:06:30.454Z,47.47
2023-02-13T13:11:51.682Z,48.10
2023-02-13T13:17:18.244Z,46.30
2023-02-13T13:22:31.044Z,45.47
2023-02-13T13:27:50.163Z,45.40
2023-02-13T13:32:56.910Z,44.93
2023-02-13T13:38:15.761Z,45.03
2023-02-13T13:44:16.425Z,45.00
2023-02-13T13:49:36.391Z,44.90
2023-02-13T13:54:38.202Z,46.33
2023-02-13T13:59:39.999Z,43.77
2023-02-13T14:05:00.330Z,44.00
2023-02-13T14:10:02.076Z,44.80
2023-02-13T14:15:03.876Z,43.23
2023-02-13T14:20:30.784Z,42.77
2023-02-13T14:25:33.412Z,42.90
2023-02-13T14:30:38.173Z,42.07
2023-02-13T14:35:39.924Z,42.07
2023-02-13T14:40:48.044Z,40.80
2023-02-13T14:45:55.975Z,41.13
2023-02-13T14:51:00.131Z,42.57
2023-02-13T14:56:15.026Z,41.43
2023-02-13T15:01:29.098Z,40.67
2023-02-13T15:06:36.114Z,41.53
2023-02-13T15:11:44.036Z,40.93
2023-02-13T15:16:50.294Z,39.60
2023-02-13T15:22:00.392Z,41.67
2023-02-13T15:27:06.697Z,38.93
2023-02-13T15:32:19.594Z,38.33
2023-02-13T15:37:24.290Z,42.03
2023-02-13T15:42:25.940Z,40.97
2023-02-13T15:47:31.758Z,39.07
2023-02-13T15:52:37.955Z,39.83
2023-02-13T15:57:40.936Z,39.63
2023-02-13T16:02:47.619Z,41.20
2023-02-13T16:07:58.218Z,40.53
2023-02-13T16:13:03.493Z,41.57
2023-02-13T16:18:11.715Z,41.00
2023-02-13T16:23:20.911Z,39.93
2023-02-13T16:28:26.536Z,39.47
2023-02-13T16:33:37.929Z,39.07
2023-02-13T16:38:42.327Z,39.40
2023-02-13T16:43:49.332Z,38.23
2023-02-13T16:48:56.984Z,39.23
2023-02-13T16:54:02.096Z,37.73
2023-02-13T16:59:22.849Z,36.37
2023-02-13T17:04:25.371Z,37.93
2023-02-13T17:09:27.155Z,37.30
2023-02-13T17:14:28.894Z,38.43
2023-02-13T17:19:30.628Z,38.33
2023-02-13T17:24:32.502Z,37.13
2023-02-13T17:29:34.189Z,35.23
2023-02-13T17:34:35.871Z,36.87
2023-02-13T17:39:37.561Z,38.13
2023-02-13T17:44:39.319Z,36.77
2023-02-13T17:49:41.467Z,35.60
2023-02-13T17:54:44.864Z,35.83
2023-02-13T17:59:47.149Z,36.30
2023-02-13T18:04:49.489Z,36.63
2023-02-13T18:09:51.911Z,35.83
2023-02-13T18:14:54.948Z,37.07
2023-02-13T18:20:01.850Z,38.20
2023-02-13T18:25:04.188Z,38.63
2023-02-13T18:30:07.184Z,37.53
2023-02-13T18:35:09.545Z,37.63
2023-02-13T18:40:11.936Z,38.27
2023-02-13T18:45:13.633Z,34.50
2023-02-13T18:50:15.260Z,33.50
2023-02-13T18:55:17.079Z,33.40
2023-02-13T19:00:20.009Z,32.53
2023-02-13T19:05:22.755Z,35.80
2023-02-13T19:10:24.466Z,31.27
2023-02-13T19:15:26.077Z,30.77
2023-02-13T19:20:27.931Z,31.57
2023-02-13T19:25:29.554Z,32.40
2023-02-13T19:30:31.796Z,29.93
2023-02-13T19:35:33.464Z,28.93
2023-02-13T19:40:35.340Z,29.10
2023-02-13T19:45:36.998Z,30.40
2023-02-13T19:50:39.251Z,36.00
2023-02-13T19:55:40.939Z,40.90
2023-02-13T20:00:42.570Z,32.00
2023-02-13T20:05:44.347Z,31.63
2023-02-13T20:10:46.343Z,28.77
2023-02-13T20:15:48.157Z,30.50
2023-02-13T20:20:50.045Z,28.53
2023-02-13T20:25:51.668Z,28.40
2023-02-13T20:30:53.610Z,27.47
2023-02-13T20:35:55.836Z,28.83
2023-02-13T20:40:57.828Z,27.60
2023-02-13T20:45:59.692Z,29.00
2023-02-13T20:51:02.946Z,30.43
2023-02-13T20:56:06.776Z,31.23
2023-02-13T21:01:18.156Z,32.10
2023-02-13T21:06:34.998Z,32.00
2023-02-13T21:11:38.319Z,32.60
